sensor_id;sensor_type;location;lat;lon;timestamp;temperature;humidity
16287;DHT22;8251;53.568;10.018;2023-02-01T00:00:12;7.80;87.20
16287;DHT22;8251;53.568;10.018;2023-02-01T00:02:39;7.80;87.80
16287;DHT22;8251;53.568;10.018;2023-02-01T00:05:12;7.90;87.80
16287;DHT22;8251;53.568;10.018;2023-02-01T00:07:47;7.90;87.80
16287;DHT22;8251;53.568;10.018;2023-02-01T00:10:24;7.90;88.40
16287;DHT22;8251;53.568;10.018;2023-02-01T00:12:53;7.80;88.60
16287;DHT22;8251;53.568;10.018;2023-02-01T00:15:25;7.90;88.70
16287;DHT22;8251;53.568;10.018;2023-02-01T00:17:53;7.80;88.30
16287;DHT22;8251;53.568;10.018;2023-02-01T00:20:25;7.90;88.30
16287;DHT22;8251;53.568;10.018;2023-02-01T00:23:12;8.00;87.80
16287;DHT22;8251;53.568;10.018;2023-02-01T00:25:43;8.00;88.10
16287;DHT22;8251;53.568;10.018;2023-02-01T00:28:13;8.00;87.90
16287;DHT22;8251;53.568;10.018;2023-02-01T00:30:45;8.00;87.70
16287;DHT22;8251;53.568;10.018;2023-02-01T00:33:16;8.00;87.60
16287;DHT22;8251;53.568;10.018;2023-02-01T00:35:47;8.00;88.00
16287;DHT22;8251;53.568;10.018;2023-02-01T00:38:18;8.00;86.80
16287;DHT22;8251;53.568;10.018;2023-02-01T00:40:46;8.10;86.90
16287;DHT22;8251;53.568;10.018;2023-02-01T00:43:18;8.10;86.80
16287;DHT22;8251;53.568;10.018;2023-02-01T00:45:48;8.10;86.80
16287;DHT22;8251;53.568;10.018;2023-02-01T00:48:17;8.10;87.10
16287;DHT22;8251;53.568;10.018;2023-02-01T00:50:49;8.00;87.40
16287;DHT22;8251;53.568;10.018;2023-02-01T00:53:21;8.00;87.60
16287;DHT22;8251;53.568;10.018;2023-02-01T00:55:48;8.10;87.80
16287;DHT22;8251;53.568;10.018;2023-02-01T00:58:19;8.20;87.70
16287;DHT22;8251;53.568;10.018;2023-02-01T01:01:02;8.10;87.70
16287;DHT22;8251;53.568;10.018;2023-02-01T01:03:36;8.10;88.10
16287;DHT22;8251;53.568;10.018;2023-02-01T01:06:10;8.10;88.20
16287;DHT22;8251;53.568;10.018;2023-02-01T01:08:41;8.10;88.20
16287;DHT22;8251;53.568;10.018;2023-02-01T01:11:15;8.10;88.20
16287;DHT22;8251;53.568;10.018;2023-02-01T01:13:46;8.10;88.20
16287;DHT22;8251;53.568;10.018;2023-02-01T01:16:23;8.10;88.60
16287;DHT22;8251;53.568;10.018;2023-02-01T01:18:52;8.10;88.60
16287;DHT22;8251;53.568;10.018;2023-02-01T01:21:35;8.20;88.40
16287;DHT22;8251;53.568;10.018;2023-02-01T01:24:09;8.20;88.40
16287;DHT22;8251;53.568;10.018;2023-02-01T01:26:40;8.30;88.30
16287;DHT22;8251;53.568;10.018;2023-02-01T01:29:10;8.30;88.20
16287;DHT22;8251;53.568;10.018;2023-02-01T01:31:38;8.30;88.00
16287;DHT22;8251;53.568;10.018;2023-02-01T01:34:05;8.20;88.20
16287;DHT22;8251;53.568;10.018;2023-02-01T01:36:37;8.20;88.20
16287;DHT22;8251;53.568;10.018;2023-02-01T01:39:08;8.10;88.40
16287;DHT22;8251;53.568;10.018;2023-02-01T01:41:40;8.20;88.40
16287;DHT22;8251;53.568;10.018;2023-02-01T01:47:20;8.20;88.40
16287;DHT22;8251;53.568;10.018;2023-02-01T01:49:54;8.20;88.40
16287;DHT22;8251;53.568;10.018;2023-02-01T01:52:27;8.20;88.40
16287;DHT22;8251;53.568;10.018;2023-02-01T01:54:59;8.20;88.70
16287;DHT22;8251;53.568;10.018;2023-02-01T01:57:34;8.20;88.60
16287;DHT22;8251;53.568;10.018;2023-02-01T02:00:11;8.30;88.80
16287;DHT22;8251;53.568;10.018;2023-02-01T02:02:45;8.20;88.80
16287;DHT22;8251;53.568;10.018;2023-02-01T02:05:16;8.30;88.70
16287;DHT22;8251;53.568;10.018;2023-02-01T02:07:48;8.20;88.60
16287;DHT22;8251;53.568;10.018;2023-02-01T02:10:21;8.20;88.90
16287;DHT22;8251;53.568;10.018;2023-02-01T02:13:13;8.30;88.90
16287;DHT22;8251;53.568;10.018;2023-02-01T02:15:52;8.20;88.60
16287;DHT22;8251;53.568;10.018;2023-02-01T02:18:31;8.30;89.00
16287;DHT22;8251;53.568;10.018;2023-02-01T02:21:16;8.10;88.80
16287;DHT22;8251;53.568;10.018;2023-02-01T02:24:04;8.10;89.40
16287;DHT22;8251;53.568;10.018;2023-02-01T02:27:00;8.10;89.40
16287;DHT22;8251;53.568;10.018;2023-02-01T02:33:54;8.00;90.10
16287;DHT22;8251;53.568;10.018;2023-02-01T02:36:38;8.00;90.20
16287;DHT22;8251;53.568;10.018;2023-02-01T02:39:15;8.00;90.30
16287;DHT22;8251;53.568;10.018;2023-02-01T02:41:54;8.10;90.20
16287;DHT22;8251;53.568;10.018;2023-02-01T02:44:55;8.10;90.30
16287;DHT22;8251;53.568;10.018;2023-02-01T02:47:53;8.10;90.30
16287;DHT22;8251;53.568;10.018;2023-02-01T02:50:43;8.20;90.30
16287;DHT22;8251;53.568;10.018;2023-02-01T02:53:33;8.10;90.30
16287;DHT22;8251;53.568;10.018;2023-02-01T02:56:21;8.00;90.40
16287;DHT22;8251;53.568;10.018;2023-02-01T02:59:12;8.00;90.30
16287;DHT22;8251;53.568;10.018;2023-02-01T03:01:59;7.90;90.80
16287;DHT22;8251;53.568;10.018;2023-02-01T03:04:46;7.80;91.30
16287;DHT22;8251;53.568;10.018;2023-02-01T03:10:39;7.80;91.40
16287;DHT22;8251;53.568;10.018;2023-02-01T03:13:28;7.80;91.40
16287;DHT22;8251;53.568;10.018;2023-02-01T03:16:19;7.80;91.60
16287;DHT22;8251;53.568;10.018;2023-02-01T03:18:57;7.90;91.60
16287;DHT22;8251;53.568;10.018;2023-02-01T03:21:29;7.90;91.90
16287;DHT22;8251;53.568;10.018;2023-02-01T03:24:07;7.80;91.90
16287;DHT22;8251;53.568;10.018;2023-02-01T03:26:47;7.70;91.90
16287;DHT22;8251;53.568;10.018;2023-02-01T03:29:19;7.60;92.20
16287;DHT22;8251;53.568;10.018;2023-02-01T03:31:48;7.60;92.50
16287;DHT22;8251;53.568;10.018;2023-02-01T03:34:21;7.60;92.50
16287;DHT22;8251;53.568;10.018;2023-02-01T03:36:59;7.60;92.30
16287;DHT22;8251;53.568;10.018;2023-02-01T03:39:38;7.50;91.60
16287;DHT22;8251;53.568;10.018;2023-02-01T03:42:14;7.60;91.80
16287;DHT22;8251;53.568;10.018;2023-02-01T03:44:49;7.60;91.70
16287;DHT22;8251;53.568;10.018;2023-02-01T03:47:23;7.60;91.90
16287;DHT22;8251;53.568;10.018;2023-02-01T03:49:55;7.50;92.20
16287;DHT22;8251;53.568;10.018;2023-02-01T03:52:32;7.50;92.20
16287;DHT22;8251;53.568;10.018;2023-02-01T03:55:02;7.40;92.40
16287;DHT22;8251;53.568;10.018;2023-02-01T03:57:43;7.30;92.40
16287;DHT22;8251;53.568;10.018;2023-02-01T04:00:19;7.40;92.20
16287;DHT22;8251;53.568;10.018;2023-02-01T04:02:47;7.40;92.30
16287;DHT22;8251;53.568;10.018;2023-02-01T04:05:15;7.50;92.20
16287;DHT22;8251;53.568;10.018;2023-02-01T04:07:44;7.50;92.20
16287;DHT22;8251;53.568;10.018;2023-02-01T04:10:14;7.60;92.20
16287;DHT22;8251;53.568;10.018;2023-02-01T04:12:44;7.50;92.30
16287;DHT22;8251;53.568;10.018;2023-02-01T04:15:14;7.50;92.40
16287;DHT22;8251;53.568;10.018;2023-02-01T04:17:42;7.40;92.70
16287;DHT22;8251;53.568;10.018;2023-02-01T04:20:19;7.40;93.10
16287;DHT22;8251;53.568;10.018;2023-02-01T04:22:48;7.40;93.00
16287;DHT22;8251;53.568;10.018;2023-02-01T04:25:16;7.40;92.90
16287;DHT22;8251;53.568;10.018;2023-02-01T04:27:47;7.40;92.80
16287;DHT22;8251;53.568;10.018;2023-02-01T04:30:24;7.30;92.80
16287;DHT22;8251;53.568;10.018;2023-02-01T04:32:53;7.30;92.80
16287;DHT22;8251;53.568;10.018;2023-02-01T04:35:23;7.30;92.80
16287;DHT22;8251;53.568;10.018;2023-02-01T04:37:52;7.30;92.50
16287;DHT22;8251;53.568;10.018;2023-02-01T04:40:22;7.20;92.60
16287;DHT22;8251;53.568;10.018;2023-02-01T04:42:54;7.40;93.00
16287;DHT22;8251;53.568;10.018;2023-02-01T04:45:24;7.40;92.60
16287;DHT22;8251;53.568;10.018;2023-02-01T04:48:00;7.30;92.60
16287;DHT22;8251;53.568;10.018;2023-02-01T04:50:27;7.40;92.40
16287;DHT22;8251;53.568;10.018;2023-02-01T04:52:54;7.50;92.30
16287;DHT22;8251;53.568;10.018;2023-02-01T04:55:21;7.40;92.40
16287;DHT22;8251;53.568;10.018;2023-02-01T04:57:49;7.40;92.70
16287;DHT22;8251;53.568;10.018;2023-02-01T05:00:23;7.40;92.70
16287;DHT22;8251;53.568;10.018;2023-02-01T05:02:52;7.40;92.50
16287;DHT22;8251;53.568;10.018;2023-02-01T05:05:22;7.30;92.40
16287;DHT22;8251;53.568;10.018;2023-02-01T05:07:49;7.20;92.70
16287;DHT22;8251;53.568;10.018;2023-02-01T05:10:21;7.20;92.70
16287;DHT22;8251;53.568;10.018;2023-02-01T05:12:49;7.20;92.50
16287;DHT22;8251;53.568;10.018;2023-02-01T05:15:47;7.10;92.40
16287;DHT22;8251;53.568;10.018;2023-02-01T05:18:19;7.00;92.50
16287;DHT22;8251;53.568;10.018;2023-02-01T05:20:48;7.00;92.60
16287;DHT22;8251;53.568;10.018;2023-02-01T05:23:18;6.90;92.40
16287;DHT22;8251;53.568;10.018;2023-02-01T05:25:46;6.90;92.30
16287;DHT22;8251;53.568;10.018;2023-02-01T05:28:29;6.80;92.20
16287;DHT22;8251;53.568;10.018;2023-02-01T05:30:58;6.70;92.70
16287;DHT22;8251;53.568;10.018;2023-02-01T05:33:28;6.60;92.60
16287;DHT22;8251;53.568;10.018;2023-02-01T05:35:58;6.60;92.60
16287;DHT22;8251;53.568;10.018;2023-02-01T05:38:30;6.70;92.60
16287;DHT22;8251;53.568;10.018;2023-02-01T05:41:00;6.70;92.40
16287;DHT22;8251;53.568;10.018;2023-02-01T05:43:29;6.60;92.60
16287;DHT22;8251;53.568;10.018;2023-02-01T05:46:01;6.60;92.50
16287;DHT22;8251;53.568;10.018;2023-02-01T05:48:29;6.40;92.60
16287;DHT22;8251;53.568;10.018;2023-02-01T05:50:58;6.40;92.60
16287;DHT22;8251;53.568;10.018;2023-02-01T05:53:25;6.40;92.90
16287;DHT22;8251;53.568;10.018;2023-02-01T05:55:58;6.40;93.10
16287;DHT22;8251;53.568;10.018;2023-02-01T05:58:41;6.40;93.00
16287;DHT22;8251;53.568;10.018;2023-02-01T06:01:10;6.40;92.90
16287;DHT22;8251;53.568;10.018;2023-02-01T06:03:38;6.40;92.80
16287;DHT22;8251;53.568;10.018;2023-02-01T06:06:09;6.30;92.80
16287;DHT22;8251;53.568;10.018;2023-02-01T06:08:39;6.40;92.90
16287;DHT22;8251;53.568;10.018;2023-02-01T06:11:11;6.30;92.80
16287;DHT22;8251;53.568;10.018;2023-02-01T06:13:40;6.30;93.00
16287;DHT22;8251;53.568;10.018;2023-02-01T06:16:12;6.30;93.00
16287;DHT22;8251;53.568;10.018;2023-02-01T06:18:43;6.30;93.10
16287;DHT22;8251;53.568;10.018;2023-02-01T06:21:12;6.30;93.20
16287;DHT22;8251;53.568;10.018;2023-02-01T06:23:51;6.30;93.20
16287;DHT22;8251;53.568;10.018;2023-02-01T06:26:19;6.30;93.30
16287;DHT22;8251;53.568;10.018;2023-02-01T06:28:46;6.40;93.30
16287;DHT22;8251;53.568;10.018;2023-02-01T06:31:19;6.40;93.20
16287;DHT22;8251;53.568;10.018;2023-02-01T06:33:49;6.50;93.20
16287;DHT22;8251;53.568;10.018;2023-02-01T06:36:31;6.60;93.20
16287;DHT22;8251;53.568;10.018;2023-02-01T06:39:00;6.60;93.10
16287;DHT22;8251;53.568;10.018;2023-02-01T06:41:35;6.60;93.10
16287;DHT22;8251;53.568;10.018;2023-02-01T06:44:05;6.70;93.10
16287;DHT22;8251;53.568;10.018;2023-02-01T06:46:36;6.70;93.10
16287;DHT22;8251;53.568;10.018;2023-02-01T06:49:09;6.70;93.70
16287;DHT22;8251;53.568;10.018;2023-02-01T06:51:36;6.70;93.40
16287;DHT22;8251;53.568;10.018;2023-02-01T06:54:09;6.80;93.40
16287;DHT22;8251;53.568;10.018;2023-02-01T06:56:36;6.80;93.30
16287;DHT22;8251;53.568;10.018;2023-02-01T06:59:06;6.80;93.50
16287;DHT22;8251;53.568;10.018;2023-02-01T07:01:43;6.80;93.40
16287;DHT22;8251;53.568;10.018;2023-02-01T07:04:28;6.80;93.50
16287;DHT22;8251;53.568;10.018;2023-02-01T07:06:57;6.80;93.60
16287;DHT22;8251;53.568;10.018;2023-02-01T07:09:27;6.90;93.50
16287;DHT22;8251;53.568;10.018;2023-02-01T07:12:00;6.90;93.70
16287;DHT22;8251;53.568;10.018;2023-02-01T07:14:27;6.90;93.60
16287;DHT22;8251;53.568;10.018;2023-02-01T07:16:58;6.90;93.70
16287;DHT22;8251;53.568;10.018;2023-02-01T07:19:33;6.80;93.90
16287;DHT22;8251;53.568;10.018;2023-02-01T07:22:01;6.80;94.10
16287;DHT22;8251;53.568;10.018;2023-02-01T07:24:35;6.90;94.20
16287;DHT22;8251;53.568;10.018;2023-02-01T07:27:03;7.00;94.30
16287;DHT22;8251;53.568;10.018;2023-02-01T07:29:31;7.00;94.30
16287;DHT22;8251;53.568;10.018;2023-02-01T07:32:09;7.00;94.30
16287;DHT22;8251;53.568;10.018;2023-02-01T07:34:44;7.00;94.20
16287;DHT22;8251;53.568;10.018;2023-02-01T07:37:14;7.10;94.40
16287;DHT22;8251;53.568;10.018;2023-02-01T07:39:41;6.90;94.10
16287;DHT22;8251;53.568;10.018;2023-02-01T07:42:11;6.80;93.60
16287;DHT22;8251;53.568;10.018;2023-02-01T07:44:40;6.70;93.50
16287;DHT22;8251;53.568;10.018;2023-02-01T07:47:11;6.80;94.20
16287;DHT22;8251;53.568;10.018;2023-02-01T07:49:41;6.90;94.50
16287;DHT22;8251;53.568;10.018;2023-02-01T07:52:09;7.00;94.70
16287;DHT22;8251;53.568;10.018;2023-02-01T07:54:42;7.00;95.00
16287;DHT22;8251;53.568;10.018;2023-02-01T07:57:20;7.10;95.20
16287;DHT22;8251;53.568;10.018;2023-02-01T07:59:50;7.20;95.00
16287;DHT22;8251;53.568;10.018;2023-02-01T08:02:39;7.20;95.00
16287;DHT22;8251;53.568;10.018;2023-02-01T08:05:09;7.30;95.00
16287;DHT22;8251;53.568;10.018;2023-02-01T08:07:43;7.30;94.80
16287;DHT22;8251;53.568;10.018;2023-02-01T08:10:13;7.40;94.80
16287;DHT22;8251;53.568;10.018;2023-02-01T08:12:44;7.50;94.60
16287;DHT22;8251;53.568;10.018;2023-02-01T08:15:25;7.50;94.50
16287;DHT22;8251;53.568;10.018;2023-02-01T08:18:09;7.40;94.50
16287;DHT22;8251;53.568;10.018;2023-02-01T08:20:38;7.50;94.40
16287;DHT22;8251;53.568;10.018;2023-02-01T08:23:12;7.50;94.30
16287;DHT22;8251;53.568;10.018;2023-02-01T08:25:44;7.50;94.20
16287;DHT22;8251;53.568;10.018;2023-02-01T08:28:17;7.60;94.20
16287;DHT22;8251;53.568;10.018;2023-02-01T08:30:44;7.60;94.20
16287;DHT22;8251;53.568;10.018;2023-02-01T08:33:14;7.70;94.00
16287;DHT22;8251;53.568;10.018;2023-02-01T08:35:43;7.80;94.00
16287;DHT22;8251;53.568;10.018;2023-02-01T08:38:18;7.80;93.60
16287;DHT22;8251;53.568;10.018;2023-02-01T08:40:48;7.80;93.80
16287;DHT22;8251;53.568;10.018;2023-02-01T08:43:16;7.90;93.70
16287;DHT22;8251;53.568;10.018;2023-02-01T08:45:46;7.80;92.90
16287;DHT22;8251;53.568;10.018;2023-02-01T08:48:17;7.80;92.70
16287;DHT22;8251;53.568;10.018;2023-02-01T08:50:44;7.80;92.80
16287;DHT22;8251;53.568;10.018;2023-02-01T08:53:19;7.90;92.90
16287;DHT22;8251;53.568;10.018;2023-02-01T08:55:49;8.00;92.70
16287;DHT22;8251;53.568;10.018;2023-02-01T08:58:18;8.00;92.60
16287;DHT22;8251;53.568;10.018;2023-02-01T09:00:51;8.00;92.70
16287;DHT22;8251;53.568;10.018;2023-02-01T09:03:21;8.10;92.60
16287;DHT22;8251;53.568;10.018;2023-02-01T09:05:59;8.00;92.10
16287;DHT22;8251;53.568;10.018;2023-02-01T09:08:42;8.10;92.50
16287;DHT22;8251;53.568;10.018;2023-02-01T09:11:12;8.10;92.30
16287;DHT22;8251;53.568;10.018;2023-02-01T09:13:40;8.10;92.30
16287;DHT22;8251;53.568;10.018;2023-02-01T09:16:08;8.20;92.40
16287;DHT22;8251;53.568;10.018;2023-02-01T09:18:37;8.00;92.10
16287;DHT22;8251;53.568;10.018;2023-02-01T09:21:19;8.00;92.20
16287;DHT22;8251;53.568;10.018;2023-02-01T09:23:46;8.10;92.30
16287;DHT22;8251;53.568;10.018;2023-02-01T09:26:14;8.10;92.30
16287;DHT22;8251;53.568;10.018;2023-02-01T09:28:41;8.20;91.60
16287;DHT22;8251;53.568;10.018;2023-02-01T09:31:08;8.20;91.90
16287;DHT22;8251;53.568;10.018;2023-02-01T09:33:36;8.30;91.60
16287;DHT22;8251;53.568;10.018;2023-02-01T09:36:04;8.40;91.70
16287;DHT22;8251;53.568;10.018;2023-02-01T09:38:32;8.40;91.40
16287;DHT22;8251;53.568;10.018;2023-02-01T09:40:59;8.60;91.30
16287;DHT22;8251;53.568;10.018;2023-02-01T09:43:36;8.50;91.20
16287;DHT22;8251;53.568;10.018;2023-02-01T09:46:18;8.60;91.20
16287;DHT22;8251;53.568;10.018;2023-02-01T09:48:57;8.60;91.30
16287;DHT22;8251;53.568;10.018;2023-02-01T09:51:28;8.60;91.00
16287;DHT22;8251;53.568;10.018;2023-02-01T09:54:01;8.60;91.30
16287;DHT22;8251;53.568;10.018;2023-02-01T09:56:34;8.70;91.20
16287;DHT22;8251;53.568;10.018;2023-02-01T09:59:10;8.70;90.90
16287;DHT22;8251;53.568;10.018;2023-02-01T10:01:40;8.70;90.80
16287;DHT22;8251;53.568;10.018;2023-02-01T10:04:12;8.70;90.70
16287;DHT22;8251;53.568;10.018;2023-02-01T10:07:02;8.70;90.60
16287;DHT22;8251;53.568;10.018;2023-02-01T10:09:46;8.60;90.60
16287;DHT22;8251;53.568;10.018;2023-02-01T10:12:40;8.70;90.60
16287;DHT22;8251;53.568;10.018;2023-02-01T10:15:21;8.80;90.50
16287;DHT22;8251;53.568;10.018;2023-02-01T10:18:03;8.80;90.50
16287;DHT22;8251;53.568;10.018;2023-02-01T10:20:48;8.80;90.70
16287;DHT22;8251;53.568;10.018;2023-02-01T10:23:43;8.80;90.20
16287;DHT22;8251;53.568;10.018;2023-02-01T10:26:18;8.80;90.30
16287;DHT22;8251;53.568;10.018;2023-02-01T10:28:49;8.80;90.60
16287;DHT22;8251;53.568;10.018;2023-02-01T10:31:17;8.80;90.40
16287;DHT22;8251;53.568;10.018;2023-02-01T10:33:47;8.80;90.10
16287;DHT22;8251;53.568;10.018;2023-02-01T10:36:21;8.70;90.10
16287;DHT22;8251;53.568;10.018;2023-02-01T10:38:48;8.80;90.70
16287;DHT22;8251;53.568;10.018;2023-02-01T10:41:20;8.80;90.80
16287;DHT22;8251;53.568;10.018;2023-02-01T10:43:50;8.80;90.90
16287;DHT22;8251;53.568;10.018;2023-02-01T10:46:20;8.80;91.00
16287;DHT22;8251;53.568;10.018;2023-02-01T10:48:48;8.70;91.20
16287;DHT22;8251;53.568;10.018;2023-02-01T10:51:22;8.70;91.30
16287;DHT22;8251;53.568;10.018;2023-02-01T10:53:54;8.70;91.30
16287;DHT22;8251;53.568;10.018;2023-02-01T10:56:23;8.70;91.40
16287;DHT22;8251;53.568;10.018;2023-02-01T10:58:50;8.60;91.30
16287;DHT22;8251;53.568;10.018;2023-02-01T11:01:21;8.40;91.60
16287;DHT22;8251;53.568;10.018;2023-02-01T11:03:53;8.40;92.00
16287;DHT22;8251;53.568;10.018;2023-02-01T11:06:29;8.40;92.00
16287;DHT22;8251;53.568;10.018;2023-02-01T11:08:58;8.20;92.00
16287;DHT22;8251;53.568;10.018;2023-02-01T11:11:27;8.20;92.30
16287;DHT22;8251;53.568;10.018;2023-02-01T11:13:57;8.20;92.20
16287;DHT22;8251;53.568;10.018;2023-02-01T11:16:34;7.90;92.40
16287;DHT22;8251;53.568;10.018;2023-02-01T11:19:02;7.80;92.50
16287;DHT22;8251;53.568;10.018;2023-02-01T11:21:31;7.80;92.80
16287;DHT22;8251;53.568;10.018;2023-02-01T11:24:01;7.90;92.40
16287;DHT22;8251;53.568;10.018;2023-02-01T11:26:29;7.90;92.40
16287;DHT22;8251;53.568;10.018;2023-02-01T11:29:00;7.90;92.30
16287;DHT22;8251;53.568;10.018;2023-02-01T11:31:28;7.90;92.50
16287;DHT22;8251;53.568;10.018;2023-02-01T11:34:05;8.00;92.50
16287;DHT22;8251;53.568;10.018;2023-02-01T11:36:35;8.00;92.50
16287;DHT22;8251;53.568;10.018;2023-02-01T11:39:23;7.90;92.50
16287;DHT22;8251;53.568;10.018;2023-02-01T11:42:01;8.00;92.70
16287;DHT22;8251;53.568;10.018;2023-02-01T11:44:33;8.10;92.60
16287;DHT22;8251;53.568;10.018;2023-02-01T11:47:24;8.00;92.80
16287;DHT22;8251;53.568;10.018;2023-02-01T11:49:52;8.10;92.80
16287;DHT22;8251;53.568;10.018;2023-02-01T11:52:37;8.10;92.70
16287;DHT22;8251;53.568;10.018;2023-02-01T11:55:29;8.00;92.70
16287;DHT22;8251;53.568;10.018;2023-02-01T11:58:17;8.10;92.80
16287;DHT22;8251;53.568;10.018;2023-02-01T12:01:04;7.90;93.00
16287;DHT22;8251;53.568;10.018;2023-02-01T12:04:01;8.00;93.40
16287;DHT22;8251;53.568;10.018;2023-02-01T12:06:44;8.00;92.90
16287;DHT22;8251;53.568;10.018;2023-02-01T12:09:26;7.90;92.30
16287;DHT22;8251;53.568;10.018;2023-02-01T12:12:02;7.80;92.30
16287;DHT22;8251;53.568;10.018;2023-02-01T12:14:57;7.60;92.60
16287;DHT22;8251;53.568;10.018;2023-02-01T12:17:42;7.60;93.00
16287;DHT22;8251;53.568;10.018;2023-02-01T12:20:26;7.60;93.40
16287;DHT22;8251;53.568;10.018;2023-02-01T12:23:02;7.70;93.30
16287;DHT22;8251;53.568;10.018;2023-02-01T12:25:54;7.60;93.60
16287;DHT22;8251;53.568;10.018;2023-02-01T12:28:44;7.50;93.90
16287;DHT22;8251;53.568;10.018;2023-02-01T12:31:35;7.50;93.60
16287;DHT22;8251;53.568;10.018;2023-02-01T12:37:12;7.40;93.90
16287;DHT22;8251;53.568;10.018;2023-02-01T12:39:48;7.30;93.60
16287;DHT22;8251;53.568;10.018;2023-02-01T12:42:24;7.20;93.70
16287;DHT22;8251;53.568;10.018;2023-02-01T12:44:54;7.30;93.90
16287;DHT22;8251;53.568;10.018;2023-02-01T12:47:26;7.30;93.70
16287;DHT22;8251;53.568;10.018;2023-02-01T12:49:58;7.30;93.60
16287;DHT22;8251;53.568;10.018;2023-02-01T12:52:32;7.10;93.60
16287;DHT22;8251;53.568;10.018;2023-02-01T12:55:07;7.10;93.90
16287;DHT22;8251;53.568;10.018;2023-02-01T12:57:42;7.00;93.60
16287;DHT22;8251;53.568;10.018;2023-02-01T13:00:15;7.00;93.50
16287;DHT22;8251;53.568;10.018;2023-02-01T13:02:52;7.00;93.40
16287;DHT22;8251;53.568;10.018;2023-02-01T13:05:24;7.00;93.30
16287;DHT22;8251;53.568;10.018;2023-02-01T13:07:58;6.80;93.50
16287;DHT22;8251;53.568;10.018;2023-02-01T13:10:32;6.80;93.70
16287;DHT22;8251;53.568;10.018;2023-02-01T13:13:07;6.80;93.60
16287;DHT22;8251;53.568;10.018;2023-02-01T13:15:40;6.80;93.80
16287;DHT22;8251;53.568;10.018;2023-02-01T13:18:17;6.70;93.30
16287;DHT22;8251;53.568;10.018;2023-02-01T13:20:49;6.70;93.90
16287;DHT22;8251;53.568;10.018;2023-02-01T13:23:25;6.80;93.60
16287;DHT22;8251;53.568;10.018;2023-02-01T13:25:54;6.80;93.50
16287;DHT22;8251;53.568;10.018;2023-02-01T13:28:26;6.80;93.90
16287;DHT22;8251;53.568;10.018;2023-02-01T13:31:19;6.90;93.60
16287;DHT22;8251;53.568;10.018;2023-02-01T13:34:04;7.00;93.60
16287;DHT22;8251;53.568;10.018;2023-02-01T13:36:53;7.10;93.10
16287;DHT22;8251;53.568;10.018;2023-02-01T13:42:21;7.20;93.10
16287;DHT22;8251;53.568;10.018;2023-02-01T13:45:00;7.20;92.70
16287;DHT22;8251;53.568;10.018;2023-02-01T13:47:32;7.30;92.60
16287;DHT22;8251;53.568;10.018;2023-02-01T13:50:03;7.40;92.80
16287;DHT22;8251;53.568;10.018;2023-02-01T13:52:39;7.50;92.40
16287;DHT22;8251;53.568;10.018;2023-02-01T13:55:31;7.50;92.80
16287;DHT22;8251;53.568;10.018;2023-02-01T13:58:15;7.50;92.10
16287;DHT22;8251;53.568;10.018;2023-02-01T14:01:35;7.50;91.80
16287;DHT22;8251;53.568;10.018;2023-02-01T14:04:47;7.40;91.90
16287;DHT22;8251;53.568;10.018;2023-02-01T14:07:21;7.30;92.10
16287;DHT22;8251;53.568;10.018;2023-02-01T14:09:50;7.30;92.50
16287;DHT22;8251;53.568;10.018;2023-02-01T14:12:45;7.40;92.30
16287;DHT22;8251;53.568;10.018;2023-02-01T14:15:25;7.40;92.40
16287;DHT22;8251;53.568;10.018;2023-02-01T14:17:55;7.50;92.20
16287;DHT22;8251;53.568;10.018;2023-02-01T14:20:43;7.50;91.80
16287;DHT22;8251;53.568;10.018;2023-02-01T14:23:25;7.60;91.40
16287;DHT22;8251;53.568;10.018;2023-02-01T14:26:14;7.70;91.70
16287;DHT22;8251;53.568;10.018;2023-02-01T14:28:58;7.90;91.80
16287;DHT22;8251;53.568;10.018;2023-02-01T14:31:40;7.90;91.90
16287;DHT22;8251;53.568;10.018;2023-02-01T14:34:22;7.90;91.90
16287;DHT22;8251;53.568;10.018;2023-02-01T14:36:53;8.00;92.30
16287;DHT22;8251;53.568;10.018;2023-02-01T14:39:33;7.90;92.30
16287;DHT22;8251;53.568;10.018;2023-02-01T14:42:05;7.70;92.30
16287;DHT22;8251;53.568;10.018;2023-02-01T14:44:37;7.50;92.50
16287;DHT22;8251;53.568;10.018;2023-02-01T14:47:32;7.50;92.40
16287;DHT22;8251;53.568;10.018;2023-02-01T14:50:30;7.50;92.50
16287;DHT22;8251;53.568;10.018;2023-02-01T14:53:18;7.50;92.50
16287;DHT22;8251;53.568;10.018;2023-02-01T14:55:53;7.50;92.40
16287;DHT22;8251;53.568;10.018;2023-02-01T14:58:39;7.50;92.50
16287;DHT22;8251;53.568;10.018;2023-02-01T15:01:18;7.50;92.50
16287;DHT22;8251;53.568;10.018;2023-02-01T15:03:58;7.60;92.40
16287;DHT22;8251;53.568;10.018;2023-02-01T15:06:38;7.60;92.50
16287;DHT22;8251;53.568;10.018;2023-02-01T15:09:13;7.70;92.40
16287;DHT22;8251;53.568;10.018;2023-02-01T15:11:57;7.70;92.20
16287;DHT22;8251;53.568;10.018;2023-02-01T15:14:30;7.70;92.10
16287;DHT22;8251;53.568;10.018;2023-02-01T15:17:16;7.80;91.90
16287;DHT22;8251;53.568;10.018;2023-02-01T15:19:55;7.70;91.60
16287;DHT22;8251;53.568;10.018;2023-02-01T15:22:28;7.70;91.60
16287;DHT22;8251;53.568;10.018;2023-02-01T15:25:00;7.70;91.70
16287;DHT22;8251;53.568;10.018;2023-02-01T15:27:32;7.70;91.60
16287;DHT22;8251;53.568;10.018;2023-02-01T15:30:06;7.70;91.60
16287;DHT22;8251;53.568;10.018;2023-02-01T15:32:35;7.60;91.20
16287;DHT22;8251;53.568;10.018;2023-02-01T15:35:05;7.50;91.20
16287;DHT22;8251;53.568;10.018;2023-02-01T15:37:34;7.60;91.40
16287;DHT22;8251;53.568;10.018;2023-02-01T15:42:55;7.50;91.50
16287;DHT22;8251;53.568;10.018;2023-02-01T15:45:29;7.50;91.60
16287;DHT22;8251;53.568;10.018;2023-02-01T15:48:01;7.50;91.60
16287;DHT22;8251;53.568;10.018;2023-02-01T15:50:32;7.50;91.70
16287;DHT22;8251;53.568;10.018;2023-02-01T15:53:23;7.50;91.90
16287;DHT22;8251;53.568;10.018;2023-02-01T15:55:58;7.40;92.10
16287;DHT22;8251;53.568;10.018;2023-02-01T15:58:30;7.40;92.10
16287;DHT22;8251;53.568;10.018;2023-02-01T16:01:01;7.30;92.20
16287;DHT22;8251;53.568;10.018;2023-02-01T16:03:38;7.30;92.40
16287;DHT22;8251;53.568;10.018;2023-02-01T16:06:29;7.30;92.40
16287;DHT22;8251;53.568;10.018;2023-02-01T16:09:13;7.30;92.20
16287;DHT22;8251;53.568;10.018;2023-02-01T16:11:51;7.50;92.40
16287;DHT22;8251;53.568;10.018;2023-02-01T16:14:21;7.40;92.30
16287;DHT22;8251;53.568;10.018;2023-02-01T16:16:54;7.40;92.20
16287;DHT22;8251;53.568;10.018;2023-02-01T16:19:27;7.40;92.30
16287;DHT22;8251;53.568;10.018;2023-02-01T16:21:56;7.50;92.20
16287;DHT22;8251;53.568;10.018;2023-02-01T16:24:27;7.50;92.10
16287;DHT22;8251;53.568;10.018;2023-02-01T16:26:58;7.60;92.00
16287;DHT22;8251;53.568;10.018;2023-02-01T16:29:25;7.50;91.90
16287;DHT22;8251;53.568;10.018;2023-02-01T16:31:56;7.50;91.70
16287;DHT22;8251;53.568;10.018;2023-02-01T16:34:24;7.50;91.90
16287;DHT22;8251;53.568;10.018;2023-02-01T16:36:51;7.50;91.90
16287;DHT22;8251;53.568;10.018;2023-02-01T16:39:24;7.40;92.10
16287;DHT22;8251;53.568;10.018;2023-02-01T16:41:58;7.40;92.10
16287;DHT22;8251;53.568;10.018;2023-02-01T16:44:27;7.30;92.00
16287;DHT22;8251;53.568;10.018;2023-02-01T16:46:54;7.60;92.00
16287;DHT22;8251;53.568;10.018;2023-02-01T16:49:24;7.50;91.90
16287;DHT22;8251;53.568;10.018;2023-02-01T16:51:52;7.60;92.00